Time;durP1;ratioP1;P1;durP2;ratioP2;P2;SDS_P1;SDS_P2;PMS_P1;PMS_P2;Temp;Humidity;BMP_temperature;BMP_pressure;BME280_temperature;BME280_humidity;BME280_pressure;Samples;Min_cycle;Max_cycle;Signal;HPM_P1;HPM_P2
2022/06/03 00:01:56;;;;;;;4.90;2.40;;;21.20;99.90;;;;;;5103462;28;20020;-79
2022/06/03 00:04:43;;;;;;;5.75;2.20;;;21.20;99.90;;;;;;5064778;28;20036;-79
2022/06/03 00:07:44;;;;;;;4.95;2.40;;;21.20;99.90;;;;;;5101149;28;20043;-79
2022/06/03 00:10:34;;;;;;;5.93;2.10;;;21.10;99.90;;;;;;5020957;28;20033;-79
2022/06/03 00:13:09;;;;;;;4.63;2.40;;;21.10;99.90;;;;;;5098747;28;20051;-79
2022/06/03 00:15:56;;;;;;;3.28;2.05;;;21.10;99.90;;;;;;5102167;28;20016;-78
2022/06/03 00:18:40;;;;;;;4.82;2.22;;;21.10;99.90;;;;;;5101809;28;20047;-79
2022/06/03 00:21:11;;;;;;;5.60;2.50;;;21.10;99.90;;;;;;5102295;28;20089;-79
2022/06/03 00:24:12;;;;;;;5.50;2.33;;;21.10;99.90;;;;;;5101691;28;20032;-79
2022/06/03 00:26:46;;;;;;;3.88;2.10;;;21.10;99.90;;;;;;5057839;28;20048;-79
2022/06/03 00:29:24;;;;;;;10.13;2.30;;;21.10;99.90;;;;;;5102306;28;20118;-79
2022/06/03 00:32:04;;;;;;;4.13;2.13;;;21.10;99.90;;;;;;5102035;28;20015;-79
2022/06/03 00:34:53;;;;;;;4.30;2.20;;;21.10;99.90;;;;;;5102319;28;20022;-79
2022/06/03 00:37:47;;;;;;;7.38;2.40;;;21.00;99.90;;;;;;5102309;28;20277;-79
2022/06/03 00:40:12;;;;;;;2.88;2.03;;;21.00;99.90;;;;;;5102944;28;20035;-79
2022/06/03 00:42:50;;;;;;;5.63;2.30;;;21.00;99.90;;;;;;5101861;28;20020;-79
2022/06/03 00:45:32;;;;;;;6.45;2.50;;;21.00;99.90;;;;;;5102866;28;20329;-79
2022/06/03 00:48:36;;;;;;;6.55;2.67;;;21.00;99.90;;;;;;5101686;28;20023;-78
2022/06/03 00:51:16;;;;;;;4.18;2.35;;;20.90;99.90;;;;;;5102099;28;20012;-79
2022/06/03 00:54:19;;;;;;;5.28;2.25;;;20.90;99.90;;;;;;5102148;28;20016;-79
2022/06/03 00:57:07;;;;;;;5.13;2.45;;;20.80;99.90;;;;;;5101403;28;20053;-79
2022/06/03 00:59:33;;;;;;;4.53;2.40;;;20.80;99.90;;;;;;5102070;28;20020;-79
2022/06/03 01:02:21;;;;;;;8.10;2.60;;;20.90;99.90;;;;;;5102413;28;20371;-79
2022/06/03 01:04:49;;;;;;;5.55;2.30;;;20.90;99.90;;;;;;5102619;28;20326;-79
2022/06/03 01:07:18;;;;;;;5.05;2.50;;;20.80;99.90;;;;;;5102418;28;20031;-79
2022/06/03 01:10:02;;;;;;;3.97;2.70;;;20.80;99.90;;;;;;5102128;28;20087;-79
2022/06/03 01:12:51;;;;;;;3.03;2.42;;;20.70;99.90;;;;;;5102184;28;20028;-79
2022/06/03 01:15:48;;;;;;;6.05;3.00;;;20.70;99.90;;;;;;5101823;28;20028;-79
2022/06/03 01:18:31;;;;;;;8.13;2.60;;;20.70;99.90;;;;;;5095446;28;20332;-79
2022/06/03 01:21:29;;;;;;;3.50;2.50;;;20.70;99.90;;;;;;5101785;28;20043;-79
2022/06/03 01:24:10;;;;;;;6.32;2.53;;;20.70;99.90;;;;;;5102109;28;20024;-79
2022/06/03 01:26:48;;;;;;;3.05;2.47;;;20.70;99.90;;;;;;5102170;28;20024;-79
2022/06/03 01:29:28;;;;;;;6.45;2.92;;;20.70;99.90;;;;;;5102251;28;20012;-79
2022/06/03 01:32:19;;;;;;;3.65;2.53;;;20.70;99.90;;;;;;5101963;28;20057;-79
2022/06/03 01:34:51;;;;;;;6.65;2.63;;;20.70;99.90;;;;;;5101416;28;20039;-79
2022/06/03 01:37:44;;;;;;;6.38;2.88;;;20.70;99.90;;;;;;5101541;28;20265;-79
2022/06/03 01:40:37;;;;;;;4.18;2.25;;;20.60;99.90;;;;;;5101917;28;20028;-78
2022/06/03 01:43:18;;;;;;;3.00;2.28;;;20.60;99.90;;;;;;5100747;28;20126;-79
2022/06/03 01:46:10;;;;;;;4.05;2.30;;;20.60;99.90;;;;;;5101711;28;20031;-79
2022/06/03 01:48:59;;;;;;;3.88;2.20;;;20.60;99.90;;;;;;5100911;28;20039;-79
2022/06/03 01:51:59;;;;;;;5.30;2.35;;;20.60;99.90;;;;;;5101204;28;20016;-78
2022/06/03 01:54:56;;;;;;;8.93;2.97;;;20.60;99.90;;;;;;5101794;28;20223;-79
2022/06/03 01:57:58;;;;;;;5.18;2.72;;;20.50;99.90;;;;;;5100911;28;20284;-78
2022/06/03 02:00:56;;;;;;;3.55;2.50;;;20.60;99.90;;;;;;5082789;28;20065;-79
2022/06/03 02:03:31;;;;;;;5.22;3.35;;;20.50;99.90;;;;;;5100923;28;20021;-79
2022/06/03 02:06:27;;;;;;;11.07;5.03;;;20.50;99.90;;;;;;5083473;28;20020;-79
2022/06/03 02:09:11;;;;;;;10.55;5.25;;;20.50;99.90;;;;;;5100824;28;20118;-79
2022/06/03 02:12:06;;;;;;;7.15;4.60;;;20.50;99.90;;;;;;5095728;28;20023;-79
2022/06/03 02:14:56;;;;;;;4.07;3.40;;;20.50;99.90;;;;;;5081705;28;20097;-79
2022/06/03 02:17:41;;;;;;;5.45;3.35;;;20.50;99.90;;;;;;5100981;28;20079;-79
2022/06/03 02:20:38;;;;;;;7.88;3.38;;;20.50;99.90;;;;;;5100941;28;20019;-79
2022/06/03 02:23:13;;;;;;;5.70;3.03;;;20.50;99.90;;;;;;5101066;28;20058;-78
2022/06/03 02:25:57;;;;;;;;;;;20.50;99.90;;;;;;5102013;28;20023;-79
2022/06/03 02:28:31;;;;;;;4.22;2.90;;;20.50;99.90;;;;;;5082407;28;19908;-79
2022/06/03 02:31:16;;;;;;;6.78;2.80;;;20.60;99.90;;;;;;5100762;28;20058;-79
2022/06/03 02:33:57;;;;;;;6.57;2.70;;;20.60;99.90;;;;;;5100702;28;20019;-79
2022/06/03 02:36:56;;;;;;;5.10;3.03;;;20.60;99.90;;;;;;5101420;28;20030;-79
2022/06/03 02:39:53;;;;;;;4.68;2.60;;;20.60;99.90;;;;;;5100757;28;20083;-79
2022/06/03 02:42:40;;;;;;;8.60;3.05;;;20.60;99.90;;;;;;5100446;28;20073;-79
2022/06/03 02:45:31;;;;;;;7.65;2.72;;;20.60;99.90;;;;;;5100524;28;20024;-79
2022/06/03 02:48:25;;;;;;;5.75;2.78;;;20.60;99.90;;;;;;5100361;28;20028;-79
2022/06/03 02:50:54;;;;;;;4.03;2.67;;;20.70;99.90;;;;;;5100572;28;20016;-79
2022/06/03 02:53:47;;;;;;;4.75;2.70;;;20.70;99.90;;;;;;5082592;28;20089;-79
2022/06/03 02:56:31;;;;;;;6.95;3.42;;;20.70;99.90;;;;;;5101232;28;20200;-79
2022/06/03 02:59:15;;;;;;;6.10;2.70;;;20.70;99.90;;;;;;5099687;28;20331;-79
2022/06/03 03:01:58;;;;;;;3.85;3.05;;;20.60;99.90;;;;;;5099700;28;20028;-79
2022/06/03 03:04:40;;;;;;;5.20;3.10;;;20.60;99.90;;;;;;5100687;28;20020;-79
2022/06/03 03:07:41;;;;;;;6.00;3.28;;;20.60;99.90;;;;;;5100686;28;20058;-79
2022/06/03 03:10:49;;;;;;;7.70;3.00;;;20.60;99.90;;;;;;5099886;28;20020;-79
2022/06/03 03:14:09;;;;;;;3.58;2.60;;;20.70;99.90;;;;;;5099387;28;20028;-79
2022/06/03 03:17:12;;;;;;;7.82;2.75;;;20.70;99.90;;;;;;4989688;28;20042;-79
2022/06/03 03:20:13;;;;;;;4.53;3.03;;;20.70;99.90;;;;;;5104243;28;20126;-79
2022/06/03 03:22:45;;;;;;;6.43;2.65;;;20.80;99.90;;;;;;5072037;28;20375;-78
2022/06/03 03:25:29;;;;;;;10.40;3.47;;;20.80;99.90;;;;;;5103960;28;20245;-78
2022/06/03 03:28:21;;;;;;;15.93;5.47;;;20.80;99.90;;;;;;5103822;28;20055;-79
2022/06/03 03:30:59;;;;;;;8.07;4.35;;;20.80;99.90;;;;;;5099619;28;20307;-77
2022/06/03 03:33:40;;;;;;;8.88;4.70;;;20.40;99.90;;;;;;5104002;28;20312;-77
2022/06/03 10:29:50;;;;;;;7.70;4.40;;;23.10;99.90;;;;;;6038187;23;20052;-79
2022/06/03 10:32:19;;;;;;;8.68;4.00;;;23.10;99.90;;;;;;4988817;28;20469;-77
2022/06/03 10:34:47;;;;;;;9.55;2.55;;;23.00;99.90;;;;;;4994100;28;20039;-76
2022/06/03 10:37:18;;;;;;;7.43;3.30;;;23.00;99.90;;;;;;4993902;28;20046;-77
2022/06/03 10:39:45;;;;;;;7.55;3.20;;;23.00;99.90;;;;;;4993909;28;20029;-78
2022/06/03 10:42:22;;;;;;;6.40;3.10;;;23.10;99.90;;;;;;4993579;28;20470;-77
2022/06/03 10:44:56;;;;;;;10.35;2.70;;;23.00;99.90;;;;;;4993849;28;20029;-77
2022/06/03 10:47:31;;;;;;;;;;;23.10;99.90;;;;;;4993965;28;20518;-77
2022/06/03 10:50:00;;;;;;;6.72;2.10;;;23.10;99.90;;;;;;4994361;28;19941;-77
2022/06/03 11:01:23;;;;;;;5.93;1.85;;;23.00;99.90;;;;;;4993536;28;20390;-77
2022/06/03 11:03:51;;;;;;;6.60;1.87;;;23.10;99.90;;;;;;4993364;28;20026;-77
2022/06/03 11:06:31;;;;;;;4.13;1.63;;;23.20;99.90;;;;;;4993650;28;20760;-77
2022/06/03 11:09:00;;;;;;;4.90;1.83;;;23.40;99.90;;;;;;4993653;28;20042;-78
2022/06/03 11:11:47;;;;;;;5.68;1.73;;;23.40;99.90;;;;;;4993208;28;20025;-78
2022/06/03 11:14:24;;;;;;;4.60;1.70;;;23.40;99.90;;;;;;4993116;28;20015;-78
2022/06/03 11:17:11;;;;;;;3.33;1.30;;;23.50;99.90;;;;;;4992774;28;20026;-78
2022/06/03 11:19:47;;;;;;;3.53;1.35;;;23.50;99.90;;;;;;4993419;28;20022;-79
2022/06/03 11:22:18;;;;;;;3.85;1.40;;;23.70;99.90;;;;;;4992947;28;20494;-78
2022/06/03 11:25:12;;;;;;;3.35;1.40;;;23.90;99.90;;;;;;4993598;28;20105;-78
2022/06/03 11:27:58;;;;;;;3.92;1.23;;;23.90;99.90;;;;;;4966051;28;20507;-79
2022/06/03 11:30:43;;;;;;;7.50;1.38;;;23.70;99.90;;;;;;4988151;28;20709;-78
2022/06/03 11:33:21;;;;;;;;;;;23.50;99.90;;;;;;4993103;28;20425;-79
2022/06/03 11:35:59;;;;;;;8.00;1.73;;;23.50;99.90;;;;;;4991925;28;19905;-79
2022/06/03 11:38:37;;;;;;;6.30;1.65;;;23.70;99.90;;;;;;4992747;28;20030;-78
2022/06/03 11:41:10;;;;;;;5.53;1.77;;;23.70;99.90;;;;;;4992781;28;20022;-79
2022/06/03 11:43:43;;;;;;;7.40;2.20;;;23.80;99.90;;;;;;4993144;28;20273;-79
2022/06/03 11:46:15;;;;;;;7.50;1.80;;;23.70;99.90;;;;;;4992447;28;20026;-79
2022/06/03 11:48:43;;;;;;;7.03;2.13;;;23.80;99.90;;;;;;4992399;28;20121;-79
2022/06/03 11:51:11;;;;;;;3.58;1.40;;;23.80;99.90;;;;;;4992585;28;20026;-79
2022/06/03 11:53:50;;;;;;;3.80;1.45;;;23.80;99.90;;;;;;4992233;28;20038;-78
2022/06/03 11:56:20;;;;;;;6.18;1.52;;;23.80;99.90;;;;;;4992229;28;20110;-79
2022/06/03 11:59:10;;;;;;;4.75;1.83;;;24.00;99.90;;;;;;4992270;28;20045;-79
2022/06/03 12:01:50;;;;;;;7.30;1.75;;;24.10;99.90;;;;;;4992230;28;20030;-77
2022/06/03 12:04:19;;;;;;;5.90;2.13;;;24.10;99.90;;;;;;4992794;28;20041;-80
2022/06/03 12:07:00;;;;;;;4.00;1.58;;;24.30;99.90;;;;;;4985536;28;20447;-79
2022/06/03 12:09:29;;;;;;;6.15;1.58;;;24.40;99.90;;;;;;4973305;28;20058;-79
2022/06/03 12:15:27;;;;;;;4.68;1.63;;;24.70;99.90;;;;;;4988529;28;20165;-78
2022/06/03 12:17:53;;;;;;;5.10;1.38;;;24.70;99.90;;;;;;4992182;28;20023;-78
2022/06/03 12:20:30;;;;;;;5.30;2.00;;;24.70;99.90;;;;;;4992009;28;20041;-79
2022/06/03 12:22:58;;;;;;;6.20;1.42;;;24.60;99.90;;;;;;4992016;28;20023;-79
2022/06/03 12:25:32;;;;;;;3.92;1.38;;;24.60;99.90;;;;;;4991827;28;20026;-79
2022/06/03 12:28:00;;;;;;;4.75;1.35;;;24.80;99.90;;;;;;4991713;28;20038;-79
2022/06/03 12:30:26;;;;;;;3.80;1.20;;;24.80;99.90;;;;;;4991425;28;20049;-79
2022/06/03 12:33:08;;;;;;;3.45;1.20;;;24.90;99.90;;;;;;4991473;28;20105;-79
2022/06/03 12:35:48;;;;;;;4.43;1.65;;;25.20;99.90;;;;;;4992122;28;20282;-79
2022/06/03 12:38:38;;;;;;;6.25;1.52;;;25.20;99.90;;;;;;4990412;28;20252;-78
2022/06/03 12:41:07;;;;;;;5.25;1.20;;;25.30;99.90;;;;;;4991641;28;20030;-79
2022/06/03 12:43:57;;;;;;;4.00;1.40;;;25.40;99.90;;;;;;4991577;28;20014;-79
2022/06/03 12:47:12;;;;;;;2.20;1.02;;;25.30;99.90;;;;;;4990448;28;20046;-79
2022/06/03 12:49:43;;;;;;;2.97;0.88;;;25.30;99.90;;;;;;4976141;28;20042;-79
2022/06/03 12:52:21;;;;;;;3.78;1.35;;;25.40;99.90;;;;;;4991236;28;20022;-79
2022/06/03 12:55:32;;;;;;;3.47;1.08;;;25.60;99.90;;;;;;4991053;28;20026;-79
2022/06/03 12:58:14;;;;;;;2.60;1.02;;;26.00;99.90;;;;;;4962466;28;20296;-79
2022/06/03 13:00:52;;;;;;;3.03;1.02;;;26.30;99.90;;;;;;4985253;28;20037;-79
2022/06/03 13:03:17;;;;;;;2.55;0.90;;;26.50;99.90;;;;;;4991475;28;20065;-79
2022/06/03 13:05:44;;;;;;;2.03;0.82;;;26.90;99.90;;;;;;4992054;28;20069;-78
2022/06/03 13:08:11;;;;;;;1.90;0.80;;;27.20;99.90;;;;;;4992281;28;20300;-79
2022/06/03 13:10:54;;;;;;;1.95;0.80;;;27.10;99.90;;;;;;4993527;28;20023;-78
2022/06/03 13:13:55;;;;;;;2.28;0.88;;;27.10;99.80;;;;;;4991973;28;20392;-78
2022/06/03 13:16:38;;;;;;;2.15;0.68;;;26.90;98.80;;;;;;4993359;28;20480;-78
2022/06/03 13:19:17;;;;;;;1.58;0.80;;;27.20;97.60;;;;;;4996345;28;20164;-79
2022/06/03 13:21:58;;;;;;;1.42;0.70;;;27.60;98.10;;;;;;4989493;28;20018;-79
2022/06/03 13:24:27;;;;;;;2.13;0.60;;;28.10;97.70;;;;;;4996161;28;20034;-77
2022/06/03 13:26:58;;;;;;;2.20;0.75;;;28.10;97.20;;;;;;5000096;28;20407;-78
2022/06/03 13:29:48;;;;;;;1.27;0.80;;;28.70;98.20;;;;;;4988404;28;20031;-86
2022/06/03 13:32:33;;;;;;;2.50;1.20;;;29.00;96.40;;;;;;4971859;28;20407;-85
2022/06/03 13:35:19;;;;;;;1.00;0.60;;;30.70;94.90;;;;;;4971907;28;20031;-86
2022/06/03 13:38:13;;;;;;;1.35;0.80;;;32.00;92.70;;;;;;4985386;28;20066;-85
2022/06/03 13:40:39;;;;;;;2.90;1.00;;;32.30;92.70;;;;;;4989207;28;20036;-85
2022/06/03 13:43:18;;;;;;;3.60;1.02;;;33.10;92.30;;;;;;4990805;28;20026;-85
2022/06/03 13:45:51;;;;;;;2.78;1.15;;;34.50;91.10;;;;;;4989217;28;20030;-85
2022/06/03 13:48:37;;;;;;;2.60;1.00;;;36.80;88.00;;;;;;4990442;28;20505;-84
2022/06/03 13:51:21;;;;;;;4.55;0.93;;;36.80;84.50;;;;;;4990258;28;20387;-85
2022/06/03 13:53:55;;;;;;;4.30;0.93;;;38.10;83.50;;;;;;4988783;28;20034;-85
2022/06/03 13:56:24;;;;;;;1.83;0.80;;;39.50;79.00;;;;;;4990279;28;20018;-86
2022/06/03 13:58:50;;;;;;;1.90;0.80;;;39.30;76.90;;;;;;4995292;28;20072;-87
2022/06/03 14:01:30;;;;;;;2.90;1.10;;;38.60;76.90;;;;;;5000344;28;20210;-87
2022/06/03 14:04:07;;;;;;;1.80;0.68;;;39.10;76.10;;;;;;5000854;28;20105;-84
2022/06/03 14:06:40;;;;;;;2.90;1.00;;;40.30;77.70;;;;;;4999735;28;20034;-84
2022/06/03 14:09:19;;;;;;;1.70;0.85;;;41.20;72.90;;;;;;4999883;28;20106;-84
2022/06/03 14:11:55;;;;;;;3.70;1.20;;;40.10;72.50;;;;;;5000457;28;20042;-84
2022/06/03 14:14:37;;;;;;;2.15;1.40;;;39.10;74.30;;;;;;4996865;28;20061;-79
2022/06/03 14:17:30;;;;;;;3.75;1.17;;;38.20;76.90;;;;;;4999493;28;20096;-78
2022/06/03 14:20:22;;;;;;;5.30;1.15;;;36.70;77.00;;;;;;4995512;28;20054;-78
2022/06/03 14:23:25;;;;;;;4.63;1.27;;;36.00;78.00;;;;;;5000658;28;20053;-77
2022/06/03 14:26:25;;;;;;;4.72;1.42;;;35.00;77.50;;;;;;5001168;28;20022;-78
2022/06/03 14:28:58;;;;;;;4.00;1.10;;;32.50;86.10;;;;;;4992160;28;20038;-77
2022/06/03 14:31:42;;;;;;;;;;;31.40;86.90;;;;;;5001193;28;20536;-77
2022/06/03 14:34:10;;;;;;;3.45;1.35;;;30.60;91.30;;;;;;5001141;28;20284;-77
2022/06/03 14:36:36;;;;;;;3.42;1.52;;;30.20;92.00;;;;;;4999088;28;20023;-77
2022/06/03 14:39:10;;;;;;;3.00;1.40;;;30.10;92.20;;;;;;5000968;28;20084;-78
2022/06/03 14:41:40;;;;;;;5.85;1.42;;;30.20;92.70;;;;;;5000685;28;20229;-78
2022/06/03 14:44:11;;;;;;;3.15;1.25;;;31.70;92.10;;;;;;5000899;28;20100;-79
2022/06/03 14:46:48;;;;;;;7.15;1.17;;;33.30;90.40;;;;;;5000238;28;20118;-78
2022/06/03 14:49:26;;;;;;;5.82;1.50;;;34.80;87.00;;;;;;5000233;28;20321;-78
2022/06/03 14:52:00;;;;;;;7.43;1.35;;;36.80;84.40;;;;;;5000878;28;20218;-78
2022/06/03 14:54:30;;;;;;;2.65;1.20;;;37.60;81.20;;;;;;5000971;28;20031;-78
2022/06/03 14:57:01;;;;;;;4.15;1.08;;;38.00;80.90;;;;;;5001006;28;20034;-78
2022/06/03 14:59:33;;;;;;;3.05;1.20;;;39.70;79.10;;;;;;5000382;28;20026;-78
2022/06/03 15:02:31;;;;;;;4.03;1.00;;;40.00;79.00;;;;;;5000691;28;20027;-78
2022/06/03 15:05:02;;;;;;;3.08;1.30;;;40.80;76.50;;;;;;4999921;28;20022;-78
2022/06/03 15:07:33;;;;;;;5.40;1.40;;;40.90;76.30;;;;;;5000217;28;20098;-78
2022/06/03 15:10:05;;;;;;;2.85;1.25;;;41.10;75.80;;;;;;5001226;28;20042;-78
2022/06/03 15:12:32;;;;;;;3.47;1.08;;;40.30;74.90;;;;;;5004015;28;20255;-78
2022/06/03 15:14:59;;;;;;;4.05;1.15;;;40.10;74.40;;;;;;5003841;28;20026;-77
2022/06/03 15:17:31;;;;;;;4.10;0.90;;;40.00;76.20;;;;;;5003329;28;20036;-78
2022/06/03 15:20:10;;;;;;;4.28;0.95;;;41.00;73.80;;;;;;5003768;28;20209;-78
2022/06/03 15:22:42;;;;;;;3.20;1.00;;;40.90;73.30;;;;;;5003960;28;20037;-77
2022/06/03 15:25:30;;;;;;;5.25;1.10;;;40.80;73.80;;;;;;5004253;28;20209;-78
2022/06/03 15:28:03;;;;;;;3.85;1.02;;;41.00;74.20;;;;;;5003956;28;20325;-77
2022/06/03 15:30:34;;;;;;;;;;;40.60;72.90;;;;;;5004587;28;20058;-77
2022/06/03 15:33:27;;;;;;;2.78;1.00;;;40.10;74.40;;;;;;5004013;28;19901;-77
2022/06/03 15:36:07;;;;;;;4.35;1.10;;;39.80;74.10;;;;;;5003456;28;20062;-78
2022/06/03 15:38:36;;;;;;;4.85;1.27;;;39.90;73.60;;;;;;5002709;28;20037;-77
2022/06/03 15:41:06;;;;;;;2.45;1.02;;;39.90;73.80;;;;;;5003674;28;20018;-77
2022/06/03 15:43:50;;;;;;;5.40;1.05;;;39.80;74.70;;;;;;5003297;28;20027;-78
2022/06/03 15:46:41;;;;;;;6.65;1.20;;;39.30;74.70;;;;;;5003645;28;20022;-77
2022/06/03 15:49:10;;;;;;;4.30;1.20;;;39.90;73.40;;;;;;5002341;28;20038;-77
2022/06/03 15:51:45;;;;;;;3.50;1.05;;;39.90;73.80;;;;;;4984496;28;20026;-78
2022/06/03 15:54:28;;;;;;;4.10;1.23;;;41.00;73.40;;;;;;4997669;28;20018;-79
2022/06/03 15:57:20;;;;;;;6.20;1.15;;;41.10;71.70;;;;;;5003308;28;20081;-78
2022/06/03 16:00:01;;;;;;;4.45;1.10;;;41.20;71.30;;;;;;5003063;28;20041;-78
2022/06/03 16:02:33;;;;;;;8.27;0.98;;;41.10;72.10;;;;;;5003342;28;20106;-79
2022/06/03 16:05:01;;;;;;;3.78;1.02;;;40.30;71.90;;;;;;5003083;28;20052;-78
2022/06/03 16:07:35;;;;;;;2.35;0.93;;;41.50;71.70;;;;;;5002389;28;20323;-78
2022/06/03 16:10:45;;;;;;;2.50;1.10;;;41.20;71.40;;;;;;5003418;28;20030;-78
2022/06/03 16:13:20;;;;;;;3.97;1.17;;;41.70;71.30;;;;;;4974063;28;20062;-78
2022/06/03 16:16:01;;;;;;;3.17;1.08;;;41.60;70.40;;;;;;4984355;28;20027;-78
2022/06/03 16:18:45;;;;;;;4.63;1.10;;;42.30;69.80;;;;;;4984222;28;20078;-78
2022/06/03 16:21:17;;;;;;;2.65;1.02;;;42.40;69.60;;;;;;4983705;28;20022;-78
2022/06/03 16:23:44;;;;;;;2.22;0.90;;;41.70;69.30;;;;;;4996648;28;20405;-78
2022/06/03 16:26:18;;;;;;;2.28;0.90;;;40.90;69.80;;;;;;4983756;28;20527;-78
2022/06/03 16:29:09;;;;;;;2.28;0.77;;;41.30;69.50;;;;;;4997618;28;20217;-79
2022/06/03 16:32:11;;;;;;;2.97;1.00;;;40.60;69.90;;;;;;5002661;28;20100;-79
2022/06/03 16:35:08;;;;;;;3.50;0.90;;;40.00;69.90;;;;;;5001576;28;20336;-79
2022/06/03 16:38:03;;;;;;;1.65;0.90;;;40.50;69.10;;;;;;5002349;28;20050;-79
2022/06/03 16:40:51;;;;;;;3.30;0.82;;;40.40;69.20;;;;;;5002546;28;20109;-79
2022/06/03 16:43:58;;;;;;;6.25;1.00;;;40.50;68.80;;;;;;5001395;28;20069;-77
2022/06/03 16:46:43;;;;;;;2.92;1.00;;;40.40;68.80;;;;;;5001538;28;20081;-78
2022/06/03 16:49:30;;;;;;;2.50;0.95;;;41.00;69.20;;;;;;5001154;28;20058;-78
2022/06/03 16:51:58;;;;;;;2.30;1.15;;;40.90;68.30;;;;;;5001732;28;20026;-78
2022/06/03 16:54:28;;;;;;;5.00;0.93;;;39.10;70.60;;;;;;5002230;28;20197;-78
2022/06/03 16:57:08;;;;;;;2.13;0.80;;;39.60;70.50;;;;;;5001854;28;20349;-79
2022/06/03 16:59:39;;;;;;;2.38;0.80;;;39.80;71.20;;;;;;4997790;28;20021;-83
2022/06/03 17:02:19;;;;;;;2.10;0.80;;;39.50;68.90;;;;;;4973136;28;20038;-82
2022/06/03 17:04:45;;;;;;;2.03;0.80;;;39.50;67.90;;;;;;4972666;28;20061;-83
2022/06/03 17:07:11;;;;;;;2.47;0.85;;;38.70;68.90;;;;;;4972730;28;20058;-84
2022/06/03 17:09:41;;;;;;;1.67;0.88;;;39.50;68.70;;;;;;4983649;28;20034;-83
2022/06/03 17:12:14;;;;;;;3.40;1.23;;;39.50;68.60;;;;;;4991400;28;20021;-82
2022/06/03 17:14:47;;;;;;;3.33;0.90;;;38.70;70.10;;;;;;4990731;28;20478;-83
2022/06/03 17:17:21;;;;;;;2.92;0.90;;;39.40;68.30;;;;;;4991049;28;20030;-83
2022/06/03 17:19:49;;;;;;;2.95;0.77;;;38.80;68.00;;;;;;4972093;28;20474;-83
2022/06/03 17:22:31;;;;;;;2.08;0.70;;;37.60;68.80;;;;;;4985690;28;20445;-83
2022/06/03 17:25:39;;;;;;;1.80;1.10;;;35.70;70.90;;;;;;4990854;28;20113;-82
2022/06/03 17:28:24;;;;;;;2.63;1.10;;;33.60;73.50;;;;;;4964765;28;20053;-83
2022/06/03 17:31:10;;;;;;;2.35;0.98;;;32.10;77.20;;;;;;4971772;28;20093;-81
2022/06/03 17:33:57;;;;;;;2.65;1.38;;;30.80;79.70;;;;;;4971553;28;20199;-82
2022/06/03 17:36:56;;;;;;;2.78;1.20;;;29.90;81.70;;;;;;4986561;28;20023;-81
2022/06/03 17:39:54;;;;;;;2.90;1.15;;;29.60;82.50;;;;;;4990784;28;20023;-82
2022/06/03 17:42:32;;;;;;;3.22;1.75;;;29.10;84.90;;;;;;4959729;28;20073;-82
2022/06/03 17:45:44;;;;;;;3.08;1.30;;;28.90;84.60;;;;;;4972168;28;20030;-82
2022/06/03 17:48:15;;;;;;;2.67;1.00;;;28.20;85.40;;;;;;4957429;28;20529;-82
2022/06/03 17:50:43;;;;;;;1.55;0.90;;;27.80;87.80;;;;;;4982787;28;20022;-81
2022/06/03 17:56:46;;;;;;;3.53;1.20;;;27.40;90.10;;;;;;4990213;28;20114;-81
2022/06/03 17:59:15;;;;;;;3.78;1.35;;;27.00;90.30;;;;;;4990035;28;20022;-81
2022/06/03 18:02:15;;;;;;;2.72;1.40;;;26.80;90.60;;;;;;4990400;28;20034;-81
2022/06/03 18:05:05;;;;;;;2.85;1.25;;;26.70;90.50;;;;;;4952498;28;20053;-81
2022/06/03 18:08:01;;;;;;;3.47;1.40;;;26.10;91.30;;;;;;4971578;28;20034;-81
2022/06/03 18:10:30;;;;;;;3.83;1.60;;;25.70;92.60;;;;;;4968032;28;20042;-81
2022/06/03 18:13:04;;;;;;;3.15;1.58;;;25.50;93.60;;;;;;4982964;28;20102;-81
2022/06/03 18:15:30;;;;;;;5.75;1.85;;;25.10;96.20;;;;;;4981042;28;20205;-81
2022/06/03 18:18:05;;;;;;;4.65;1.73;;;24.80;97.40;;;;;;4979982;28;20369;-82
2022/06/03 18:20:45;;;;;;;2.90;1.60;;;24.50;97.50;;;;;;4999982;28;20258;-82
2022/06/03 18:23:40;;;;;;;3.35;1.60;;;24.30;98.00;;;;;;4998235;28;20057;-82
2022/06/03 18:26:08;;;;;;;3.08;1.35;;;24.20;97.90;;;;;;4998572;28;20094;-80
2022/06/03 18:28:40;;;;;;;2.70;1.70;;;23.90;98.30;;;;;;5000157;28;20378;-81
2022/06/03 18:31:15;;;;;;;4.38;2.20;;;23.80;99.00;;;;;;5000342;28;20054;-78
2022/06/03 18:34:11;;;;;;;2.70;1.70;;;23.80;98.60;;;;;;5000262;28;20191;-78
2022/06/03 18:36:55;;;;;;;3.67;1.88;;;23.70;99.00;;;;;;4999448;28;20018;-78
2022/06/03 18:39:58;;;;;;;4.18;1.80;;;23.70;99.00;;;;;;5000659;28;20026;-78
2022/06/03 18:45:28;;;;;;;4.72;2.10;;;23.30;99.90;;;;;;5003780;28;20077;-78
2022/06/03 18:48:04;;;;;;;6.03;2.00;;;23.10;99.90;;;;;;5005048;28;20364;-78
2022/06/03 18:50:51;;;;;;;3.50;1.80;;;23.10;99.90;;;;;;5004523;28;20026;-78
2022/06/03 18:53:36;;;;;;;4.18;1.55;;;23.10;99.90;;;;;;5004356;28;20101;-78
2022/06/03 18:56:32;;;;;;;4.35;2.15;;;23.00;99.90;;;;;;5004141;28;20088;-78
2022/06/03 18:59:21;;;;;;;3.25;1.50;;;23.00;99.90;;;;;;4974990;28;20090;-77
2022/06/03 19:02:00;;;;;;;5.90;2.13;;;22.90;99.90;;;;;;4997326;28;20030;-77
2022/06/03 19:04:37;;;;;;;3.95;1.70;;;22.80;99.90;;;;;;5002966;28;20030;-77
2022/06/03 19:07:12;;;;;;;2.40;1.70;;;22.80;99.90;;;;;;5003997;28;20525;-77
2022/06/03 19:09:37;;;;;;;;;;;22.80;99.90;;;;;;5004600;28;20115;-78
2022/06/03 19:12:46;;;;;;;3.42;1.42;;;22.80;99.90;;;;;;5003627;28;20297;-78
2022/06/03 19:15:22;;;;;;;4.43;1.40;;;22.70;99.90;;;;;;4972674;28;20048;-77
2022/06/03 19:18:13;;;;;;;3.88;1.70;;;22.50;99.90;;;;;;4984204;28;20086;-77
2022/06/03 19:21:02;;;;;;;3.40;1.77;;;22.40;99.90;;;;;;4997879;28;20387;-83
2022/06/03 19:23:42;;;;;;;2.92;1.50;;;22.40;99.90;;;;;;5003619;28;20324;-83
2022/06/03 19:26:36;;;;;;;4.35;1.58;;;22.40;99.90;;;;;;4999776;28;20042;-83
2022/06/03 19:29:14;;;;;;;4.40;1.60;;;22.20;99.90;;;;;;4992267;28;20238;-82
2022/06/03 19:31:57;;;;;;;2.53;1.45;;;22.10;99.90;;;;;;4985193;28;20093;-82
2022/06/03 19:34:46;;;;;;;4.60;1.60;;;22.10;99.90;;;;;;4984606;28;20030;-82
2022/06/03 19:37:29;;;;;;;3.15;1.70;;;22.10;99.90;;;;;;4997198;28;20133;-82
2022/06/03 19:40:16;;;;;;;2.80;1.45;;;22.10;99.90;;;;;;5003528;28;20076;-83
2022/06/03 19:42:53;;;;;;;4.15;1.70;;;22.00;99.90;;;;;;5002808;28;20069;-83
2022/06/03 19:45:51;;;;;;;3.67;1.80;;;21.90;99.90;;;;;;5002719;28;20045;-83
2022/06/03 19:48:37;;;;;;;6.50;1.80;;;21.80;99.90;;;;;;4994248;28;20035;-83
2022/06/03 19:51:10;;;;;;;5.53;1.77;;;21.70;99.90;;;;;;4996118;28;20030;-83
2022/06/03 19:54:10;;;;;;;2.95;1.88;;;21.50;99.90;;;;;;4992352;28;20034;-83
2022/06/03 19:56:49;;;;;;;4.75;1.70;;;21.40;99.90;;;;;;5001392;28;20022;-83
2022/06/03 19:59:29;;;;;;;4.43;1.85;;;21.30;99.90;;;;;;4983459;28;20054;-83
2022/06/03 20:02:10;;;;;;;4.80;1.80;;;21.30;99.90;;;;;;4981177;28;20262;-83
2022/06/03 20:04:40;;;;;;;3.40;1.80;;;21.30;99.90;;;;;;4983608;28;20221;-83
2022/06/03 20:07:16;;;;;;;4.32;1.75;;;21.20;99.90;;;;;;4998480;28;20137;-82
2022/06/03 20:09:47;;;;;;;3.47;2.00;;;21.10;99.90;;;;;;4996868;28;20025;-83
2022/06/03 20:15:36;;;;;;;7.07;2.20;;;21.10;99.90;;;;;;4982979;28;20041;-82
2022/06/03 20:18:21;;;;;;;5.55;2.30;;;21.00;99.90;;;;;;4998200;28;20027;-82
2022/06/03 20:20:56;;;;;;;5.07;2.35;;;21.00;99.90;;;;;;4997565;28;20034;-82
2022/06/03 20:23:43;;;;;;;4.30;1.80;;;21.00;99.90;;;;;;4999921;28;20030;-83
2022/06/03 20:26:34;;;;;;;3.88;1.90;;;20.90;99.90;;;;;;5000972;28;20022;-83
2022/06/03 20:29:15;;;;;;;3.95;1.83;;;21.00;99.90;;;;;;4999496;28;20038;-83
2022/06/03 20:32:11;;;;;;;4.78;2.10;;;21.00;99.90;;;;;;4998489;28;20088;-83
2022/06/03 20:34:54;;;;;;;4.13;2.17;;;21.00;99.90;;;;;;4969477;28;20045;-83
2022/06/03 20:37:42;;;;;;;4.30;2.10;;;20.90;99.90;;;;;;4971551;28;20447;-83
2022/06/03 20:40:29;;;;;;;5.45;2.45;;;21.00;99.90;;;;;;4973058;28;20395;-82
2022/06/03 20:43:22;;;;;;;6.30;2.35;;;20.80;99.90;;;;;;4986038;28;20418;-83
2022/06/03 20:46:15;;;;;;;5.45;2.60;;;20.80;99.90;;;;;;4991604;28;20034;-83
2022/06/03 20:48:48;;;;;;;7.10;2.58;;;20.80;99.90;;;;;;4991228;28;20038;-83
2022/06/03 20:51:47;;;;;;;6.97;2.80;;;20.80;99.90;;;;;;4989944;28;20018;-83
2022/06/03 20:54:23;;;;;;;3.75;2.40;;;20.80;99.90;;;;;;4991214;28;20105;-83
2022/06/03 20:56:56;;;;;;;6.07;2.60;;;20.80;99.90;;;;;;4991291;28;20054;-83
2022/06/03 20:59:25;;;;;;;3.97;2.08;;;20.90;99.90;;;;;;4991168;28;20061;-83
2022/06/03 21:02:03;;;;;;;6.05;2.53;;;20.90;99.90;;;;;;4972204;28;20023;-83
2022/06/03 21:13:08;;;;;;;5.22;2.80;;;20.60;99.90;;;;;;5001674;28;20443;-82
2022/06/03 21:15:34;;;;;;;;;;;20.50;99.90;;;;;;5002559;28;20027;-82
2022/06/03 21:18:00;;;;;;;6.18;2.85;;;20.60;99.90;;;;;;5002401;28;19908;-82
2022/06/03 21:20:37;;;;;;;5.80;2.80;;;20.70;99.90;;;;;;5002077;28;20026;-82
2022/06/03 21:23:15;;;;;;;4.50;2.47;;;20.70;99.90;;;;;;5001209;28;20056;-82
2022/06/03 21:25:42;;;;;;;7.53;2.92;;;20.50;99.90;;;;;;5001157;28;20085;-82